sensor_id;sensor_type;location;lat;lon;timestamp;P1;durP1;ratioP1;P2;durP2;ratioP2
9160;SDS011;4615;51.340;8.288;2023-02-11T00:00:18;34.60;;;29.17;;
9160;SDS011;4615;51.340;8.288;2023-02-11T00:02:45;35.70;;;28.48;;
9160;SDS011;4615;51.340;8.288;2023-02-11T00:05:11;33.92;;;28.77;;
9160;SDS011;4615;51.340;8.288;2023-02-11T00:07:39;33.97;;;27.92;;
9160;SDS011;4615;51.340;8.288;2023-02-11T00:10:06;34.10;;;27.95;;
9160;SDS011;4615;51.340;8.288;2023-02-11T00:12:32;34.65;;;28.52;;
9160;SDS011;4615;51.340;8.288;2023-02-11T00:14:59;33.75;;;29.33;;
9160;SDS011;4615;51.340;8.288;2023-02-11T00:17:25;32.25;;;28.10;;
9160;SDS011;4615;51.340;8.288;2023-02-11T00:19:52;32.70;;;27.13;;
9160;SDS011;4615;51.340;8.288;2023-02-11T00:22:18;30.95;;;27.60;;
9160;SDS011;4615;51.340;8.288;2023-02-11T00:24:46;31.40;;;26.42;;
9160;SDS011;4615;51.340;8.288;2023-02-11T00:27:12;32.70;;;27.25;;
9160;SDS011;4615;51.340;8.288;2023-02-11T00:29:39;31.45;;;26.05;;
9160;SDS011;4615;51.340;8.288;2023-02-11T00:32:05;35.33;;;28.27;;
9160;SDS011;4615;51.340;8.288;2023-02-11T00:34:33;30.48;;;26.65;;
9160;SDS011;4615;51.340;8.288;2023-02-11T00:36:59;30.95;;;26.15;;
9160;SDS011;4615;51.340;8.288;2023-02-11T00:39:26;32.45;;;26.80;;
9160;SDS011;4615;51.340;8.288;2023-02-11T00:41:53;31.75;;;26.33;;
9160;SDS011;4615;51.340;8.288;2023-02-11T00:44:20;33.30;;;27.60;;
9160;SDS011;4615;51.340;8.288;2023-02-11T00:46:46;31.67;;;26.83;;
9160;SDS011;4615;51.340;8.288;2023-02-11T00:49:13;28.00;;;24.83;;
9160;SDS011;4615;51.340;8.288;2023-02-11T00:51:39;31.13;;;26.85;;
9160;SDS011;4615;51.340;8.288;2023-02-11T00:54:05;34.03;;;26.85;;
9160;SDS011;4615;51.340;8.288;2023-02-11T00:56:32;32.22;;;25.42;;
9160;SDS011;4615;51.340;8.288;2023-02-11T00:59:00;30.02;;;25.67;;
9160;SDS011;4615;51.340;8.288;2023-02-11T01:01:26;30.50;;;26.30;;
9160;SDS011;4615;51.340;8.288;2023-02-11T01:03:52;31.17;;;25.88;;
9160;SDS011;4615;51.340;8.288;2023-02-11T01:06:19;29.83;;;24.58;;
9160;SDS011;4615;51.340;8.288;2023-02-11T01:08:45;28.70;;;25.63;;
9160;SDS011;4615;51.340;8.288;2023-02-11T01:11:12;30.73;;;25.73;;
9160;SDS011;4615;51.340;8.288;2023-02-11T01:13:39;32.00;;;26.27;;
9160;SDS011;4615;51.340;8.288;2023-02-11T01:16:08;31.23;;;26.17;;
9160;SDS011;4615;51.340;8.288;2023-02-11T01:18:35;31.33;;;26.20;;
9160;SDS011;4615;51.340;8.288;2023-02-11T01:21:01;26.67;;;23.63;;
9160;SDS011;4615;51.340;8.288;2023-02-11T01:23:28;29.85;;;24.70;;
9160;SDS011;4615;51.340;8.288;2023-02-11T01:25:54;29.77;;;25.17;;
9160;SDS011;4615;51.340;8.288;2023-02-11T01:28:22;27.90;;;24.25;;
9160;SDS011;4615;51.340;8.288;2023-02-11T01:30:48;27.17;;;23.58;;
9160;SDS011;4615;51.340;8.288;2023-02-11T01:33:16;26.50;;;22.88;;
9160;SDS011;4615;51.340;8.288;2023-02-11T01:35:43;26.33;;;22.95;;
9160;SDS011;4615;51.340;8.288;2023-02-11T01:38:13;31.10;;;24.92;;
9160;SDS011;4615;51.340;8.288;2023-02-11T01:40:45;27.83;;;23.88;;
9160;SDS011;4615;51.340;8.288;2023-02-11T01:43:11;27.60;;;23.90;;
9160;SDS011;4615;51.340;8.288;2023-02-11T01:45:53;28.00;;;24.85;;
9160;SDS011;4615;51.340;8.288;2023-02-11T01:48:24;29.20;;;24.38;;
9160;SDS011;4615;51.340;8.288;2023-02-11T01:50:51;28.10;;;24.52;;
9160;SDS011;4615;51.340;8.288;2023-02-11T01:53:20;26.83;;;23.65;;
9160;SDS011;4615;51.340;8.288;2023-02-11T01:56:04;27.38;;;24.13;;
9160;SDS011;4615;51.340;8.288;2023-02-11T01:58:49;27.73;;;23.90;;
9160;SDS011;4615;51.340;8.288;2023-02-11T02:01:16;28.45;;;23.55;;
9160;SDS011;4615;51.340;8.288;2023-02-11T02:03:45;27.45;;;24.00;;
9160;SDS011;4615;51.340;8.288;2023-02-11T02:06:14;26.80;;;23.88;;
9160;SDS011;4615;51.340;8.288;2023-02-11T02:08:43;28.02;;;24.67;;
9160;SDS011;4615;51.340;8.288;2023-02-11T02:11:12;25.87;;;23.07;;
9160;SDS011;4615;51.340;8.288;2023-02-11T02:13:38;25.15;;;22.23;;
9160;SDS011;4615;51.340;8.288;2023-02-11T02:16:05;25.25;;;22.40;;
9160;SDS011;4615;51.340;8.288;2023-02-11T02:18:34;26.60;;;22.77;;
9160;SDS011;4615;51.340;8.288;2023-02-11T02:21:25;29.30;;;24.08;;
9160;SDS011;4615;51.340;8.288;2023-02-11T02:26:53;28.15;;;24.05;;
9160;SDS011;4615;51.340;8.288;2023-02-11T02:29:38;27.48;;;23.33;;
9160;SDS011;4615;51.340;8.288;2023-02-11T02:32:23;27.08;;;24.17;;
9160;SDS011;4615;51.340;8.288;2023-02-11T02:34:52;30.35;;;24.02;;
9160;SDS011;4615;51.340;8.288;2023-02-11T02:37:22;26.40;;;23.60;;
9160;SDS011;4615;51.340;8.288;2023-02-11T02:39:49;28.13;;;24.33;;
9160;SDS011;4615;51.340;8.288;2023-02-11T02:42:16;27.73;;;24.25;;
9160;SDS011;4615;51.340;8.288;2023-02-11T02:44:46;27.90;;;23.83;;
9160;SDS011;4615;51.340;8.288;2023-02-11T02:47:12;27.75;;;24.27;;
9160;SDS011;4615;51.340;8.288;2023-02-11T02:49:40;27.40;;;24.23;;
9160;SDS011;4615;51.340;8.288;2023-02-11T02:52:11;26.88;;;23.83;;
9160;SDS011;4615;51.340;8.288;2023-02-11T02:54:45;27.87;;;24.87;;
9160;SDS011;4615;51.340;8.288;2023-02-11T02:57:21;26.63;;;23.70;;
9160;SDS011;4615;51.340;8.288;2023-02-11T02:59:56;26.75;;;23.88;;
9160;SDS011;4615;51.340;8.288;2023-02-11T03:02:28;26.77;;;24.02;;
9160;SDS011;4615;51.340;8.288;2023-02-11T03:04:58;27.42;;;24.38;;
9160;SDS011;4615;51.340;8.288;2023-02-11T03:07:30;28.75;;;25.40;;
9160;SDS011;4615;51.340;8.288;2023-02-11T03:10:01;29.45;;;24.80;;
9160;SDS011;4615;51.340;8.288;2023-02-11T03:12:31;29.13;;;25.75;;
9160;SDS011;4615;51.340;8.288;2023-02-11T03:14:58;27.52;;;24.65;;
9160;SDS011;4615;51.340;8.288;2023-02-11T03:17:26;28.00;;;24.77;;
9160;SDS011;4615;51.340;8.288;2023-02-11T03:19:54;27.83;;;24.83;;
9160;SDS011;4615;51.340;8.288;2023-02-11T03:22:24;29.40;;;26.02;;
9160;SDS011;4615;51.340;8.288;2023-02-11T03:24:52;28.20;;;25.27;;
9160;SDS011;4615;51.340;8.288;2023-02-11T03:27:20;29.02;;;25.92;;
9160;SDS011;4615;51.340;8.288;2023-02-11T03:29:48;29.85;;;26.38;;
9160;SDS011;4615;51.340;8.288;2023-02-11T03:32:19;29.02;;;25.63;;
9160;SDS011;4615;51.340;8.288;2023-02-11T03:34:48;29.67;;;26.17;;
9160;SDS011;4615;51.340;8.288;2023-02-11T03:37:15;28.90;;;25.63;;
9160;SDS011;4615;51.340;8.288;2023-02-11T03:39:45;29.05;;;26.05;;
9160;SDS011;4615;51.340;8.288;2023-02-11T03:42:12;29.93;;;26.70;;
9160;SDS011;4615;51.340;8.288;2023-02-11T03:44:40;29.20;;;25.85;;
9160;SDS011;4615;51.340;8.288;2023-02-11T03:47:09;29.30;;;25.88;;
9160;SDS011;4615;51.340;8.288;2023-02-11T03:49:37;28.57;;;25.33;;
9160;SDS011;4615;51.340;8.288;2023-02-11T03:52:04;29.77;;;26.57;;
9160;SDS011;4615;51.340;8.288;2023-02-11T03:54:31;29.45;;;26.30;;
9160;SDS011;4615;51.340;8.288;2023-02-11T03:57:00;31.40;;;27.33;;
9160;SDS011;4615;51.340;8.288;2023-02-11T03:59:27;31.33;;;27.85;;
9160;SDS011;4615;51.340;8.288;2023-02-11T04:01:54;30.42;;;27.10;;
9160;SDS011;4615;51.340;8.288;2023-02-11T04:04:20;33.03;;;27.92;;
9160;SDS011;4615;51.340;8.288;2023-02-11T04:06:46;30.77;;;27.27;;
9160;SDS011;4615;51.340;8.288;2023-02-11T04:09:13;30.75;;;27.45;;
9160;SDS011;4615;51.340;8.288;2023-02-11T04:11:40;31.85;;;27.80;;
9160;SDS011;4615;51.340;8.288;2023-02-11T04:14:07;31.55;;;28.15;;
9160;SDS011;4615;51.340;8.288;2023-02-11T04:16:34;31.17;;;27.77;;
9160;SDS011;4615;51.340;8.288;2023-02-11T04:19:00;31.95;;;28.27;;
9160;SDS011;4615;51.340;8.288;2023-02-11T04:21:27;32.20;;;28.38;;
9160;SDS011;4615;51.340;8.288;2023-02-11T04:23:53;33.17;;;28.73;;
9160;SDS011;4615;51.340;8.288;2023-02-11T04:26:19;32.53;;;29.13;;
9160;SDS011;4615;51.340;8.288;2023-02-11T04:28:46;32.28;;;28.33;;
9160;SDS011;4615;51.340;8.288;2023-02-11T04:31:13;32.20;;;28.30;;
9160;SDS011;4615;51.340;8.288;2023-02-11T04:33:40;31.67;;;28.05;;
9160;SDS011;4615;51.340;8.288;2023-02-11T04:36:06;32.00;;;28.33;;
9160;SDS011;4615;51.340;8.288;2023-02-11T04:38:33;31.30;;;28.03;;
9160;SDS011;4615;51.340;8.288;2023-02-11T04:40:59;32.58;;;27.80;;
9160;SDS011;4615;51.340;8.288;2023-02-11T04:43:26;33.55;;;29.23;;
9160;SDS011;4615;51.340;8.288;2023-02-11T04:45:55;32.10;;;28.70;;
9160;SDS011;4615;51.340;8.288;2023-02-11T04:48:22;35.80;;;29.30;;
9160;SDS011;4615;51.340;8.288;2023-02-11T04:50:49;31.63;;;27.95;;
9160;SDS011;4615;51.340;8.288;2023-02-11T04:53:15;32.13;;;27.90;;
9160;SDS011;4615;51.340;8.288;2023-02-11T04:55:42;32.13;;;28.67;;
9160;SDS011;4615;51.340;8.288;2023-02-11T04:58:08;32.78;;;29.33;;
9160;SDS011;4615;51.340;8.288;2023-02-11T05:00:34;31.73;;;28.23;;
9160;SDS011;4615;51.340;8.288;2023-02-11T05:03:01;32.47;;;28.98;;
9160;SDS011;4615;51.340;8.288;2023-02-11T05:05:28;32.92;;;29.38;;
9160;SDS011;4615;51.340;8.288;2023-02-11T05:07:55;35.47;;;30.40;;
9160;SDS011;4615;51.340;8.288;2023-02-11T05:10:22;34.92;;;30.63;;
9160;SDS011;4615;51.340;8.288;2023-02-11T05:12:48;34.50;;;30.77;;
9160;SDS011;4615;51.340;8.288;2023-02-11T05:15:14;36.05;;;31.98;;
9160;SDS011;4615;51.340;8.288;2023-02-11T05:17:41;34.55;;;30.73;;
9160;SDS011;4615;51.340;8.288;2023-02-11T05:20:08;36.97;;;31.73;;
9160;SDS011;4615;51.340;8.288;2023-02-11T05:22:36;37.28;;;32.22;;
9160;SDS011;4615;51.340;8.288;2023-02-11T05:25:02;37.97;;;32.28;;
9160;SDS011;4615;51.340;8.288;2023-02-11T05:27:28;38.43;;;33.93;;
9160;SDS011;4615;51.340;8.288;2023-02-11T05:29:55;40.22;;;33.60;;
9160;SDS011;4615;51.340;8.288;2023-02-11T05:32:21;37.97;;;32.90;;
9160;SDS011;4615;51.340;8.288;2023-02-11T05:34:48;39.17;;;33.60;;
9160;SDS011;4615;51.340;8.288;2023-02-11T05:37:14;42.05;;;34.78;;
9160;SDS011;4615;51.340;8.288;2023-02-11T05:39:42;42.33;;;35.88;;
9160;SDS011;4615;51.340;8.288;2023-02-11T05:42:08;42.85;;;34.20;;
9160;SDS011;4615;51.340;8.288;2023-02-11T05:44:35;41.20;;;33.97;;
9160;SDS011;4615;51.340;8.288;2023-02-11T05:47:01;41.70;;;33.47;;
9160;SDS011;4615;51.340;8.288;2023-02-11T05:49:27;39.83;;;35.20;;
9160;SDS011;4615;51.340;8.288;2023-02-11T05:51:54;44.10;;;35.38;;
9160;SDS011;4615;51.340;8.288;2023-02-11T05:54:20;47.55;;;37.33;;
9160;SDS011;4615;51.340;8.288;2023-02-11T05:56:48;37.65;;;33.17;;
9160;SDS011;4615;51.340;8.288;2023-02-11T05:59:14;42.78;;;34.80;;
9160;SDS011;4615;51.340;8.288;2023-02-11T06:01:41;43.00;;;34.88;;
9160;SDS011;4615;51.340;8.288;2023-02-11T06:04:07;43.40;;;34.95;;
9160;SDS011;4615;51.340;8.288;2023-02-11T06:06:33;39.63;;;33.55;;
9160;SDS011;4615;51.340;8.288;2023-02-11T06:09:00;40.90;;;34.87;;
9160;SDS011;4615;51.340;8.288;2023-02-11T06:11:26;40.90;;;33.95;;
9160;SDS011;4615;51.340;8.288;2023-02-11T06:13:54;40.08;;;34.20;;
9160;SDS011;4615;51.340;8.288;2023-02-11T06:16:20;42.90;;;35.78;;
9160;SDS011;4615;51.340;8.288;2023-02-11T06:18:47;42.70;;;34.60;;
9160;SDS011;4615;51.340;8.288;2023-02-11T06:21:13;43.63;;;35.67;;
9160;SDS011;4615;51.340;8.288;2023-02-11T06:23:40;40.53;;;33.88;;
9160;SDS011;4615;51.340;8.288;2023-02-11T06:26:07;41.17;;;33.08;;
9160;SDS011;4615;51.340;8.288;2023-02-11T06:28:34;39.90;;;34.50;;
9160;SDS011;4615;51.340;8.288;2023-02-11T06:31:04;43.25;;;36.30;;
9160;SDS011;4615;51.340;8.288;2023-02-11T06:33:31;40.10;;;34.63;;
9160;SDS011;4615;51.340;8.288;2023-02-11T06:35:58;40.90;;;33.97;;
9160;SDS011;4615;51.340;8.288;2023-02-11T06:38:24;40.17;;;33.30;;
9160;SDS011;4615;51.340;8.288;2023-02-11T06:40:51;39.15;;;33.33;;
9160;SDS011;4615;51.340;8.288;2023-02-11T06:43:17;36.33;;;32.20;;
9160;SDS011;4615;51.340;8.288;2023-02-11T06:45:43;38.85;;;33.28;;
9160;SDS011;4615;51.340;8.288;2023-02-11T06:48:11;36.35;;;31.77;;
9160;SDS011;4615;51.340;8.288;2023-02-11T06:50:37;36.78;;;32.47;;
9160;SDS011;4615;51.340;8.288;2023-02-11T06:53:04;39.20;;;32.67;;
9160;SDS011;4615;51.340;8.288;2023-02-11T06:55:30;37.33;;;32.28;;
9160;SDS011;4615;51.340;8.288;2023-02-11T06:57:57;39.17;;;33.00;;
9160;SDS011;4615;51.340;8.288;2023-02-11T07:00:23;36.08;;;31.98;;
9160;SDS011;4615;51.340;8.288;2023-02-11T07:02:50;43.45;;;36.80;;
9160;SDS011;4615;51.340;8.288;2023-02-11T07:05:18;49.17;;;37.97;;
9160;SDS011;4615;51.340;8.288;2023-02-11T07:07:44;42.72;;;37.30;;
9160;SDS011;4615;51.340;8.288;2023-02-11T07:10:11;39.80;;;33.15;;
9160;SDS011;4615;51.340;8.288;2023-02-11T07:12:37;35.08;;;30.48;;
9160;SDS011;4615;51.340;8.288;2023-02-11T07:15:04;38.28;;;32.53;;
9160;SDS011;4615;51.340;8.288;2023-02-11T07:17:30;41.92;;;34.25;;
9160;SDS011;4615;51.340;8.288;2023-02-11T07:19:57;39.57;;;34.73;;
9160;SDS011;4615;51.340;8.288;2023-02-11T07:22:25;38.03;;;33.30;;
9160;SDS011;4615;51.340;8.288;2023-02-11T07:24:51;40.17;;;34.75;;
9160;SDS011;4615;51.340;8.288;2023-02-11T07:27:17;35.17;;;30.63;;
9160;SDS011;4615;51.340;8.288;2023-02-11T07:29:44;34.33;;;29.50;;
9160;SDS011;4615;51.340;8.288;2023-02-11T07:32:11;34.30;;;30.23;;
9160;SDS011;4615;51.340;8.288;2023-02-11T07:34:37;35.42;;;31.63;;
9160;SDS011;4615;51.340;8.288;2023-02-11T07:37:04;40.53;;;35.67;;
9160;SDS011;4615;51.340;8.288;2023-02-11T07:39:31;40.25;;;35.83;;
9160;SDS011;4615;51.340;8.288;2023-02-11T07:41:58;38.33;;;34.13;;
9160;SDS011;4615;51.340;8.288;2023-02-11T07:44:24;38.45;;;33.92;;
9160;SDS011;4615;51.340;8.288;2023-02-11T07:46:50;37.42;;;33.05;;
9160;SDS011;4615;51.340;8.288;2023-02-11T07:49:17;39.92;;;33.35;;
9160;SDS011;4615;51.340;8.288;2023-02-11T07:51:43;38.15;;;33.22;;
9160;SDS011;4615;51.340;8.288;2023-02-11T07:54:10;41.22;;;36.08;;
9160;SDS011;4615;51.340;8.288;2023-02-11T07:56:38;37.60;;;33.50;;
9160;SDS011;4615;51.340;8.288;2023-02-11T07:59:04;37.17;;;33.05;;
9160;SDS011;4615;51.340;8.288;2023-02-11T08:01:31;35.65;;;31.70;;
9160;SDS011;4615;51.340;8.288;2023-02-11T08:03:58;41.70;;;34.50;;
9160;SDS011;4615;51.340;8.288;2023-02-11T08:06:26;36.30;;;32.40;;
9160;SDS011;4615;51.340;8.288;2023-02-11T08:08:52;37.50;;;33.40;;
9160;SDS011;4615;51.340;8.288;2023-02-11T08:11:20;35.13;;;31.30;;
9160;SDS011;4615;51.340;8.288;2023-02-11T08:13:47;35.10;;;31.23;;
9160;SDS011;4615;51.340;8.288;2023-02-11T08:16:16;35.92;;;32.13;;
9160;SDS011;4615;51.340;8.288;2023-02-11T08:18:43;33.67;;;30.08;;
9160;SDS011;4615;51.340;8.288;2023-02-11T08:21:10;32.88;;;29.38;;
9160;SDS011;4615;51.340;8.288;2023-02-11T08:23:36;32.90;;;29.50;;
9160;SDS011;4615;51.340;8.288;2023-02-11T08:26:03;31.70;;;28.30;;
9160;SDS011;4615;51.340;8.288;2023-02-11T08:28:30;30.65;;;27.50;;
9160;SDS011;4615;51.340;8.288;2023-02-11T08:31:00;32.08;;;28.67;;
9160;SDS011;4615;51.340;8.288;2023-02-11T08:33:29;32.78;;;29.13;;
9160;SDS011;4615;51.340;8.288;2023-02-11T08:35:55;32.78;;;29.20;;
9160;SDS011;4615;51.340;8.288;2023-02-11T08:38:22;34.72;;;30.23;;
9160;SDS011;4615;51.340;8.288;2023-02-11T08:40:48;32.65;;;28.67;;
9160;SDS011;4615;51.340;8.288;2023-02-11T08:43:15;31.58;;;28.10;;
9160;SDS011;4615;51.340;8.288;2023-02-11T08:45:41;30.13;;;26.85;;
9160;SDS011;4615;51.340;8.288;2023-02-11T08:48:09;31.17;;;27.77;;
9160;SDS011;4615;51.340;8.288;2023-02-11T08:50:37;28.73;;;25.77;;
9160;SDS011;4615;51.340;8.288;2023-02-11T08:53:03;31.23;;;27.85;;
9160;SDS011;4615;51.340;8.288;2023-02-11T08:55:30;28.42;;;25.42;;
9160;SDS011;4615;51.340;8.288;2023-02-11T08:57:56;29.38;;;26.17;;
9160;SDS011;4615;51.340;8.288;2023-02-11T09:00:23;28.80;;;25.77;;
9160;SDS011;4615;51.340;8.288;2023-02-11T09:02:49;28.85;;;25.83;;
9160;SDS011;4615;51.340;8.288;2023-02-11T09:05:17;29.08;;;25.90;;
9160;SDS011;4615;51.340;8.288;2023-02-11T09:07:43;28.38;;;25.45;;
9160;SDS011;4615;51.340;8.288;2023-02-11T09:10:10;27.65;;;24.73;;
9160;SDS011;4615;51.340;8.288;2023-02-11T09:12:36;28.00;;;25.10;;
9160;SDS011;4615;51.340;8.288;2023-02-11T09:15:03;28.55;;;25.45;;
9160;SDS011;4615;51.340;8.288;2023-02-11T09:17:29;27.73;;;24.80;;
9160;SDS011;4615;51.340;8.288;2023-02-11T09:19:55;27.55;;;24.65;;
9160;SDS011;4615;51.340;8.288;2023-02-11T09:22:23;28.47;;;25.43;;
9160;SDS011;4615;51.340;8.288;2023-02-11T09:24:50;26.27;;;23.57;;
9160;SDS011;4615;51.340;8.288;2023-02-11T09:27:16;27.55;;;24.65;;
9160;SDS011;4615;51.340;8.288;2023-02-11T09:29:42;28.05;;;25.05;;
9160;SDS011;4615;51.340;8.288;2023-02-11T09:32:09;29.93;;;25.90;;
9160;SDS011;4615;51.340;8.288;2023-02-11T09:34:35;27.60;;;24.55;;
9160;SDS011;4615;51.340;8.288;2023-02-11T09:37:02;28.75;;;25.73;;
9160;SDS011;4615;51.340;8.288;2023-02-11T09:39:29;29.57;;;25.97;;
9160;SDS011;4615;51.340;8.288;2023-02-11T09:44:43;29.98;;;26.38;;
9160;SDS011;4615;51.340;8.288;2023-02-11T09:47:17;29.85;;;26.58;;
9160;SDS011;4615;51.340;8.288;2023-02-11T09:49:47;29.88;;;26.20;;
9160;SDS011;4615;51.340;8.288;2023-02-11T09:52:17;29.95;;;26.20;;
9160;SDS011;4615;51.340;8.288;2023-02-11T09:54:51;29.70;;;26.50;;
9160;SDS011;4615;51.340;8.288;2023-02-11T09:57:18;30.38;;;25.38;;
9160;SDS011;4615;51.340;8.288;2023-02-11T09:59:45;29.88;;;25.90;;
9160;SDS011;4615;51.340;8.288;2023-02-11T10:02:15;31.27;;;26.83;;
9160;SDS011;4615;51.340;8.288;2023-02-11T10:04:46;31.45;;;26.23;;
9160;SDS011;4615;51.340;8.288;2023-02-11T10:07:16;30.35;;;25.95;;
9160;SDS011;4615;51.340;8.288;2023-02-11T10:09:52;30.20;;;26.63;;
9160;SDS011;4615;51.340;8.288;2023-02-11T10:12:31;27.83;;;24.92;;
9160;SDS011;4615;51.340;8.288;2023-02-11T10:15:12;28.63;;;25.00;;
9160;SDS011;4615;51.340;8.288;2023-02-11T10:17:42;28.48;;;24.08;;
9160;SDS011;4615;51.340;8.288;2023-02-11T10:20:14;31.20;;;26.08;;
9160;SDS011;4615;51.340;8.288;2023-02-11T10:22:42;30.70;;;25.80;;
9160;SDS011;4615;51.340;8.288;2023-02-11T10:25:16;28.52;;;24.73;;
9160;SDS011;4615;51.340;8.288;2023-02-11T10:27:42;34.40;;;26.95;;
9160;SDS011;4615;51.340;8.288;2023-02-11T10:30:14;35.08;;;26.38;;
9160;SDS011;4615;51.340;8.288;2023-02-11T10:32:43;35.53;;;26.48;;
9160;SDS011;4615;51.340;8.288;2023-02-11T10:35:13;36.95;;;28.33;;
9160;SDS011;4615;51.340;8.288;2023-02-11T10:37:42;38.08;;;27.75;;
9160;SDS011;4615;51.340;8.288;2023-02-11T10:40:13;34.60;;;26.33;;
9160;SDS011;4615;51.340;8.288;2023-02-11T10:42:39;35.75;;;26.73;;
9160;SDS011;4615;51.340;8.288;2023-02-11T10:45:09;34.65;;;27.17;;
9160;SDS011;4615;51.340;8.288;2023-02-11T10:47:41;34.63;;;26.83;;
9160;SDS011;4615;51.340;8.288;2023-02-11T10:50:17;34.42;;;26.42;;
9160;SDS011;4615;51.340;8.288;2023-02-11T10:52:44;35.13;;;27.05;;
9160;SDS011;4615;51.340;8.288;2023-02-11T10:55:15;39.87;;;28.80;;
9160;SDS011;4615;51.340;8.288;2023-02-11T10:57:42;40.08;;;29.10;;
9160;SDS011;4615;51.340;8.288;2023-02-11T11:03:03;39.77;;;29.47;;
9160;SDS011;4615;51.340;8.288;2023-02-11T11:05:30;43.28;;;30.70;;
9160;SDS011;4615;51.340;8.288;2023-02-11T11:07:58;39.53;;;29.53;;
9160;SDS011;4615;51.340;8.288;2023-02-11T11:10:27;40.85;;;29.48;;
9160;SDS011;4615;51.340;8.288;2023-02-11T11:12:53;43.28;;;30.60;;
9160;SDS011;4615;51.340;8.288;2023-02-11T11:15:20;45.75;;;31.15;;
9160;SDS011;4615;51.340;8.288;2023-02-11T11:17:47;41.28;;;30.23;;
9160;SDS011;4615;51.340;8.288;2023-02-11T11:20:15;42.33;;;30.37;;
9160;SDS011;4615;51.340;8.288;2023-02-11T11:22:44;45.28;;;31.77;;
9160;SDS011;4615;51.340;8.288;2023-02-11T11:25:21;43.67;;;32.45;;
9160;SDS011;4615;51.340;8.288;2023-02-11T11:27:49;44.45;;;32.05;;
9160;SDS011;4615;51.340;8.288;2023-02-11T11:30:16;42.50;;;30.80;;
9160;SDS011;4615;51.340;8.288;2023-02-11T11:32:42;42.40;;;30.73;;
9160;SDS011;4615;51.340;8.288;2023-02-11T11:35:19;45.13;;;31.92;;
9160;SDS011;4615;51.340;8.288;2023-02-11T11:37:50;45.05;;;32.35;;
9160;SDS011;4615;51.340;8.288;2023-02-11T11:40:21;48.70;;;33.33;;
9160;SDS011;4615;51.340;8.288;2023-02-11T11:43:02;49.53;;;34.30;;
9160;SDS011;4615;51.340;8.288;2023-02-11T11:45:29;47.70;;;33.17;;
9160;SDS011;4615;51.340;8.288;2023-02-11T11:47:56;48.28;;;33.92;;
9160;SDS011;4615;51.340;8.288;2023-02-11T11:50:25;49.10;;;34.38;;
9160;SDS011;4615;51.340;8.288;2023-02-11T11:52:53;46.50;;;33.47;;
9160;SDS011;4615;51.340;8.288;2023-02-11T11:55:23;51.67;;;35.25;;
9160;SDS011;4615;51.340;8.288;2023-02-11T11:57:50;50.10;;;34.47;;
9160;SDS011;4615;51.340;8.288;2023-02-11T12:00:19;48.95;;;33.78;;
9160;SDS011;4615;51.340;8.288;2023-02-11T12:05:35;49.15;;;34.58;;
9160;SDS011;4615;51.340;8.288;2023-02-11T12:08:07;48.30;;;35.35;;
9160;SDS011;4615;51.340;8.288;2023-02-11T12:10:39;49.78;;;34.53;;
9160;SDS011;4615;51.340;8.288;2023-02-11T12:13:15;48.15;;;33.38;;
9160;SDS011;4615;51.340;8.288;2023-02-11T12:15:46;47.47;;;33.47;;
9160;SDS011;4615;51.340;8.288;2023-02-11T12:18:18;48.33;;;33.78;;
9160;SDS011;4615;51.340;8.288;2023-02-11T12:20:53;45.88;;;33.72;;
9160;SDS011;4615;51.340;8.288;2023-02-11T12:23:29;45.00;;;33.55;;
9160;SDS011;4615;51.340;8.288;2023-02-11T12:26:01;41.83;;;31.80;;
9160;SDS011;4615;51.340;8.288;2023-02-11T12:28:34;41.15;;;31.48;;
9160;SDS011;4615;51.340;8.288;2023-02-11T12:31:16;43.72;;;32.28;;
9160;SDS011;4615;51.340;8.288;2023-02-11T12:33:53;40.35;;;31.35;;
9160;SDS011;4615;51.340;8.288;2023-02-11T12:36:26;43.72;;;32.47;;
9160;SDS011;4615;51.340;8.288;2023-02-11T12:39:05;40.83;;;31.30;;
9160;SDS011;4615;51.340;8.288;2023-02-11T12:41:38;37.63;;;29.65;;
9160;SDS011;4615;51.340;8.288;2023-02-11T12:44:28;38.70;;;30.27;;
9160;SDS011;4615;51.340;8.288;2023-02-11T12:46:59;37.83;;;29.85;;
9160;SDS011;4615;51.340;8.288;2023-02-11T12:49:35;34.97;;;29.15;;
9160;SDS011;4615;51.340;8.288;2023-02-11T12:52:12;38.27;;;30.77;;
9160;SDS011;4615;51.340;8.288;2023-02-11T12:54:43;38.97;;;30.52;;
9160;SDS011;4615;51.340;8.288;2023-02-11T12:57:12;38.58;;;30.27;;
9160;SDS011;4615;51.340;8.288;2023-02-11T12:59:43;40.83;;;32.08;;
9160;SDS011;4615;51.340;8.288;2023-02-11T13:02:17;41.57;;;32.27;;
9160;SDS011;4615;51.340;8.288;2023-02-11T13:04:45;42.50;;;32.55;;
9160;SDS011;4615;51.340;8.288;2023-02-11T13:07:14;43.50;;;33.15;;
9160;SDS011;4615;51.340;8.288;2023-02-11T13:09:43;41.92;;;33.10;;
9160;SDS011;4615;51.340;8.288;2023-02-11T13:12:11;42.50;;;32.93;;
9160;SDS011;4615;51.340;8.288;2023-02-11T13:15:12;44.95;;;34.38;;
9160;SDS011;4615;51.340;8.288;2023-02-11T13:17:51;46.42;;;34.17;;
9160;SDS011;4615;51.340;8.288;2023-02-11T13:20:27;47.50;;;35.85;;
9160;SDS011;4615;51.340;8.288;2023-02-11T13:22:58;45.72;;;35.05;;
9160;SDS011;4615;51.340;8.288;2023-02-11T13:25:28;42.85;;;33.55;;
9160;SDS011;4615;51.340;8.288;2023-02-11T13:27:56;45.30;;;34.50;;
9160;SDS011;4615;51.340;8.288;2023-02-11T13:30:26;46.15;;;35.10;;
9160;SDS011;4615;51.340;8.288;2023-02-11T13:35:39;47.87;;;36.33;;
9160;SDS011;4615;51.340;8.288;2023-02-11T13:38:15;46.97;;;35.47;;
9160;SDS011;4615;51.340;8.288;2023-02-11T13:40:42;47.50;;;35.42;;
9160;SDS011;4615;51.340;8.288;2023-02-11T13:43:18;48.85;;;36.17;;
9160;SDS011;4615;51.340;8.288;2023-02-11T13:45:45;50.83;;;37.65;;
9160;SDS011;4615;51.340;8.288;2023-02-11T13:48:14;53.28;;;38.28;;
9160;SDS011;4615;51.340;8.288;2023-02-11T13:50:47;51.55;;;37.40;;
9160;SDS011;4615;51.340;8.288;2023-02-11T13:53:14;52.55;;;37.65;;
9160;SDS011;4615;51.340;8.288;2023-02-11T13:55:41;51.22;;;38.17;;
9160;SDS011;4615;51.340;8.288;2023-02-11T13:58:15;55.20;;;39.00;;
9160;SDS011;4615;51.340;8.288;2023-02-11T14:00:43;50.63;;;37.20;;
9160;SDS011;4615;51.340;8.288;2023-02-11T14:03:21;51.50;;;37.65;;
9160;SDS011;4615;51.340;8.288;2023-02-11T14:06:11;48.65;;;38.33;;
9160;SDS011;4615;51.340;8.288;2023-02-11T14:09:00;50.90;;;37.75;;
9160;SDS011;4615;51.340;8.288;2023-02-11T14:11:46;49.97;;;36.35;;
9160;SDS011;4615;51.340;8.288;2023-02-11T14:14:14;48.13;;;36.05;;
9160;SDS011;4615;51.340;8.288;2023-02-11T14:19:29;47.55;;;35.25;;
9160;SDS011;4615;51.340;8.288;2023-02-11T14:22:01;47.25;;;35.45;;
9160;SDS011;4615;51.340;8.288;2023-02-11T14:27:26;42.35;;;33.35;;
9160;SDS011;4615;51.340;8.288;2023-02-11T14:32:43;44.97;;;35.22;;
9160;SDS011;4615;51.340;8.288;2023-02-11T14:35:15;44.90;;;34.38;;
9160;SDS011;4615;51.340;8.288;2023-02-11T14:37:46;49.38;;;36.63;;
9160;SDS011;4615;51.340;8.288;2023-02-11T14:40:21;43.03;;;34.05;;
9160;SDS011;4615;51.340;8.288;2023-02-11T14:42:51;45.05;;;34.25;;
9160;SDS011;4615;51.340;8.288;2023-02-11T14:45:20;45.72;;;33.97;;
9160;SDS011;4615;51.340;8.288;2023-02-11T14:47:50;42.22;;;33.35;;
9160;SDS011;4615;51.340;8.288;2023-02-11T14:50:19;43.35;;;34.13;;
9160;SDS011;4615;51.340;8.288;2023-02-11T14:52:48;43.80;;;34.10;;
9160;SDS011;4615;51.340;8.288;2023-02-11T14:55:17;45.20;;;34.50;;
9160;SDS011;4615;51.340;8.288;2023-02-11T14:57:47;44.60;;;34.47;;
9160;SDS011;4615;51.340;8.288;2023-02-11T15:00:15;44.78;;;33.78;;
9160;SDS011;4615;51.340;8.288;2023-02-11T15:02:42;39.47;;;32.35;;
9160;SDS011;4615;51.340;8.288;2023-02-11T15:05:13;43.33;;;32.78;;
9160;SDS011;4615;51.340;8.288;2023-02-11T15:07:42;47.53;;;34.50;;
9160;SDS011;4615;51.340;8.288;2023-02-11T15:10:14;44.28;;;34.13;;
9160;SDS011;4615;51.340;8.288;2023-02-11T15:12:43;45.25;;;34.80;;
9160;SDS011;4615;51.340;8.288;2023-02-11T15:15:12;44.60;;;33.92;;
9160;SDS011;4615;51.340;8.288;2023-02-11T15:17:39;50.67;;;38.33;;
9160;SDS011;4615;51.340;8.288;2023-02-11T15:20:12;48.50;;;35.13;;